sensor_id;sensor_type;location;lat;lon;timestamp;temperature;humidity
3996;DHT22;2012;49.794;9.722;2023-04-01T00:01:42;10.00;99.90
3996;DHT22;2012;49.794;9.722;2023-04-01T00:04:09;10.10;99.90
3996;DHT22;2012;49.794;9.722;2023-04-01T00:06:36;10.10;99.90
3996;DHT22;2012;49.794;9.722;2023-04-01T00:09:03;10.10;99.90
3996;DHT22;2012;49.794;9.722;2023-04-01T00:11:31;10.00;99.90
3996;DHT22;2012;49.794;9.722;2023-04-01T00:13:58;10.10;99.90
3996;DHT22;2012;49.794;9.722;2023-04-01T00:16:26;10.00;99.90
3996;DHT22;2012;49.794;9.722;2023-04-01T00:18:53;10.00;99.90
3996;DHT22;2012;49.794;9.722;2023-04-01T00:21:20;10.00;99.90
3996;DHT22;2012;49.794;9.722;2023-04-01T00:23:50;10.00;99.90
3996;DHT22;2012;49.794;9.722;2023-04-01T00:26:17;10.00;99.90
3996;DHT22;2012;49.794;9.722;2023-04-01T00:28:47;10.00;99.90
3996;DHT22;2012;49.794;9.722;2023-04-01T00:31:14;10.00;99.90
3996;DHT22;2012;49.794;9.722;2023-04-01T00:33:41;10.00;99.90
3996;DHT22;2012;49.794;9.722;2023-04-01T00:36:21;10.00;99.90
3996;DHT22;2012;49.794;9.722;2023-04-01T00:38:50;10.00;99.90
3996;DHT22;2012;49.794;9.722;2023-04-01T00:41:19;10.00;99.90
3996;DHT22;2012;49.794;9.722;2023-04-01T00:43:50;10.00;99.90
3996;DHT22;2012;49.794;9.722;2023-04-01T00:46:18;10.00;99.90
3996;DHT22;2012;49.794;9.722;2023-04-01T00:48:48;10.00;99.90
3996;DHT22;2012;49.794;9.722;2023-04-01T00:51:20;10.00;99.90
3996;DHT22;2012;49.794;9.722;2023-04-01T00:53:50;10.00;99.90
3996;DHT22;2012;49.794;9.722;2023-04-01T00:56:33;10.00;99.90
3996;DHT22;2012;49.794;9.722;2023-04-01T00:59:14;10.00;99.90
3996;DHT22;2012;49.794;9.722;2023-04-01T01:01:42;10.00;99.90
3996;DHT22;2012;49.794;9.722;2023-04-01T01:04:30;10.00;99.90
3996;DHT22;2012;49.794;9.722;2023-04-01T01:12:40;10.00;99.90
3996;DHT22;2012;49.794;9.722;2023-04-01T01:18:24;9.90;99.90
3996;DHT22;2012;49.794;9.722;2023-04-01T01:26:25;9.90;99.90
3996;DHT22;2012;49.794;9.722;2023-04-01T01:31:47;9.90;99.90
3996;DHT22;2012;49.794;9.722;2023-04-01T01:34:32;9.80;99.90
3996;DHT22;2012;49.794;9.722;2023-04-01T01:37:10;9.90;99.90
3996;DHT22;2012;49.794;9.722;2023-04-01T01:39:37;9.90;99.90
3996;DHT22;2012;49.794;9.722;2023-04-01T01:42:09;9.90;99.90
3996;DHT22;2012;49.794;9.722;2023-04-01T01:44:38;9.90;99.90
3996;DHT22;2012;49.794;9.722;2023-04-01T01:47:05;9.90;99.90
3996;DHT22;2012;49.794;9.722;2023-04-01T01:49:33;9.90;99.90
3996;DHT22;2012;49.794;9.722;2023-04-01T01:52:02;9.90;99.90
3996;DHT22;2012;49.794;9.722;2023-04-01T01:54:30;9.90;99.90
3996;DHT22;2012;49.794;9.722;2023-04-01T01:57:07;10.00;99.90
3996;DHT22;2012;49.794;9.722;2023-04-01T01:59:38;10.00;99.90
3996;DHT22;2012;49.794;9.722;2023-04-01T02:02:06;9.90;99.90
3996;DHT22;2012;49.794;9.722;2023-04-01T02:04:41;9.90;99.90
3996;DHT22;2012;49.794;9.722;2023-04-01T02:07:22;9.90;99.90
3996;DHT22;2012;49.794;9.722;2023-04-01T02:09:51;9.90;99.90
3996;DHT22;2012;49.794;9.722;2023-04-01T02:12:19;9.90;99.90
3996;DHT22;2012;49.794;9.722;2023-04-01T02:14:52;9.90;99.90
3996;DHT22;2012;49.794;9.722;2023-04-01T02:17:25;10.00;99.90
3996;DHT22;2012;49.794;9.722;2023-04-01T02:20:02;9.90;99.90
3996;DHT22;2012;49.794;9.722;2023-04-01T02:22:38;9.90;99.90
3996;DHT22;2012;49.794;9.722;2023-04-01T02:25:09;9.90;99.90
3996;DHT22;2012;49.794;9.722;2023-04-01T02:27:36;9.90;99.90
3996;DHT22;2012;49.794;9.722;2023-04-01T02:30:04;9.90;99.90
3996;DHT22;2012;49.794;9.722;2023-04-01T02:32:33;9.90;99.90
3996;DHT22;2012;49.794;9.722;2023-04-01T02:35:01;9.90;99.90
3996;DHT22;2012;49.794;9.722;2023-04-01T02:37:32;9.90;99.90
3996;DHT22;2012;49.794;9.722;2023-04-01T02:40:03;9.90;99.90
3996;DHT22;2012;49.794;9.722;2023-04-01T02:42:33;9.90;99.90
3996;DHT22;2012;49.794;9.722;2023-04-01T02:45:01;9.90;99.90
3996;DHT22;2012;49.794;9.722;2023-04-01T02:47:28;9.90;99.90
3996;DHT22;2012;49.794;9.722;2023-04-01T02:49:56;9.90;99.90
3996;DHT22;2012;49.794;9.722;2023-04-01T02:52:25;9.80;99.90
3996;DHT22;2012;49.794;9.722;2023-04-01T02:54:52;9.90;99.90
3996;DHT22;2012;49.794;9.722;2023-04-01T02:57:19;9.80;99.90
3996;DHT22;2012;49.794;9.722;2023-04-01T02:59:47;9.80;99.90
3996;DHT22;2012;49.794;9.722;2023-04-01T03:02:14;9.90;99.90
3996;DHT22;2012;49.794;9.722;2023-04-01T03:04:41;9.90;99.90
3996;DHT22;2012;49.794;9.722;2023-04-01T03:07:08;9.80;99.90
3996;DHT22;2012;49.794;9.722;2023-04-01T03:09:37;9.90;99.90
3996;DHT22;2012;49.794;9.722;2023-04-01T03:12:04;9.80;99.90
3996;DHT22;2012;49.794;9.722;2023-04-01T03:14:39;9.80;99.90
3996;DHT22;2012;49.794;9.722;2023-04-01T03:17:06;9.90;99.90
3996;DHT22;2012;49.794;9.722;2023-04-01T03:19:33;9.90;99.90
3996;DHT22;2012;49.794;9.722;2023-04-01T03:22:04;9.80;99.90
3996;DHT22;2012;49.794;9.722;2023-04-01T03:24:31;9.80;99.90
3996;DHT22;2012;49.794;9.722;2023-04-01T03:26:58;9.80;99.90
3996;DHT22;2012;49.794;9.722;2023-04-01T03:29:25;9.80;99.90
3996;DHT22;2012;49.794;9.722;2023-04-01T03:31:52;9.80;99.90
3996;DHT22;2012;49.794;9.722;2023-04-01T03:34:19;9.80;99.90
3996;DHT22;2012;49.794;9.722;2023-04-01T03:36:46;9.80;99.90
3996;DHT22;2012;49.794;9.722;2023-04-01T03:39:13;9.80;99.90
3996;DHT22;2012;49.794;9.722;2023-04-01T03:41:40;9.80;99.90
3996;DHT22;2012;49.794;9.722;2023-04-01T03:44:07;9.80;99.90
3996;DHT22;2012;49.794;9.722;2023-04-01T03:46:34;9.90;99.90
3996;DHT22;2012;49.794;9.722;2023-04-01T03:49:02;9.80;99.90
3996;DHT22;2012;49.794;9.722;2023-04-01T03:51:29;9.80;99.90
3996;DHT22;2012;49.794;9.722;2023-04-01T03:53:56;9.80;99.90
3996;DHT22;2012;49.794;9.722;2023-04-01T03:56:22;9.70;99.90
3996;DHT22;2012;49.794;9.722;2023-04-01T03:58:49;9.80;99.90
3996;DHT22;2012;49.794;9.722;2023-04-01T04:01:19;9.80;99.90
3996;DHT22;2012;49.794;9.722;2023-04-01T04:03:49;9.80;99.90
3996;DHT22;2012;49.794;9.722;2023-04-01T04:06:18;9.80;99.90
3996;DHT22;2012;49.794;9.722;2023-04-01T04:08:46;9.80;99.90
3996;DHT22;2012;49.794;9.722;2023-04-01T04:11:13;9.80;99.90
3996;DHT22;2012;49.794;9.722;2023-04-01T04:13:42;9.80;99.90
3996;DHT22;2012;49.794;9.722;2023-04-01T04:16:10;9.80;99.90
3996;DHT22;2012;49.794;9.722;2023-04-01T04:18:42;9.80;99.90
3996;DHT22;2012;49.794;9.722;2023-04-01T04:21:12;9.80;99.90
3996;DHT22;2012;49.794;9.722;2023-04-01T04:23:41;9.80;99.90
3996;DHT22;2012;49.794;9.722;2023-04-01T04:26:11;9.80;99.90
3996;DHT22;2012;49.794;9.722;2023-04-01T04:28:39;9.70;99.90
3996;DHT22;2012;49.794;9.722;2023-04-01T04:31:07;9.80;99.90
3996;DHT22;2012;49.794;9.722;2023-04-01T04:33:35;9.80;99.90
3996;DHT22;2012;49.794;9.722;2023-04-01T04:36:04;9.70;99.90
3996;DHT22;2012;49.794;9.722;2023-04-01T04:38:31;9.70;99.90
3996;DHT22;2012;49.794;9.722;2023-04-01T04:40:58;9.70;99.90
3996;DHT22;2012;49.794;9.722;2023-04-01T04:43:26;9.70;99.90
3996;DHT22;2012;49.794;9.722;2023-04-01T04:45:53;9.60;99.90
3996;DHT22;2012;49.794;9.722;2023-04-01T04:48:21;9.60;99.90
3996;DHT22;2012;49.794;9.722;2023-04-01T04:50:49;9.60;99.90
3996;DHT22;2012;49.794;9.722;2023-04-01T04:53:19;9.60;99.90
3996;DHT22;2012;49.794;9.722;2023-04-01T04:55:48;9.60;99.90
3996;DHT22;2012;49.794;9.722;2023-04-01T04:58:39;9.60;99.90
3996;DHT22;2012;49.794;9.722;2023-04-01T05:01:14;9.50;99.90
3996;DHT22;2012;49.794;9.722;2023-04-01T05:03:42;9.60;99.90
3996;DHT22;2012;49.794;9.722;2023-04-01T05:06:11;9.50;99.90
3996;DHT22;2012;49.794;9.722;2023-04-01T05:08:39;9.50;99.90
3996;DHT22;2012;49.794;9.722;2023-04-01T05:11:10;9.50;99.90
3996;DHT22;2012;49.794;9.722;2023-04-01T05:13:41;9.50;99.90
3996;DHT22;2012;49.794;9.722;2023-04-01T05:16:14;9.50;99.90
3996;DHT22;2012;49.794;9.722;2023-04-01T05:18:42;9.50;99.90
3996;DHT22;2012;49.794;9.722;2023-04-01T05:21:11;9.50;99.90
3996;DHT22;2012;49.794;9.722;2023-04-01T05:23:38;9.50;99.90
3996;DHT22;2012;49.794;9.722;2023-04-01T05:26:11;9.50;99.90
3996;DHT22;2012;49.794;9.722;2023-04-01T05:28:38;9.40;99.90
3996;DHT22;2012;49.794;9.722;2023-04-01T05:31:06;9.40;99.90
3996;DHT22;2012;49.794;9.722;2023-04-01T05:33:36;9.50;99.90
3996;DHT22;2012;49.794;9.722;2023-04-01T05:36:11;9.50;99.90
3996;DHT22;2012;49.794;9.722;2023-04-01T05:38:40;9.50;99.90
3996;DHT22;2012;49.794;9.722;2023-04-01T05:41:10;9.50;99.90
3996;DHT22;2012;49.794;9.722;2023-04-01T05:43:41;9.50;99.90
3996;DHT22;2012;49.794;9.722;2023-04-01T05:46:29;9.50;99.90
3996;DHT22;2012;49.794;9.722;2023-04-01T05:49:09;9.50;99.90
3996;DHT22;2012;49.794;9.722;2023-04-01T05:51:36;9.40;99.90
3996;DHT22;2012;49.794;9.722;2023-04-01T05:54:04;9.40;99.90
3996;DHT22;2012;49.794;9.722;2023-04-01T05:56:31;9.50;99.90
3996;DHT22;2012;49.794;9.722;2023-04-01T05:58:59;9.40;99.90
3996;DHT22;2012;49.794;9.722;2023-04-01T06:01:26;9.50;99.90
3996;DHT22;2012;49.794;9.722;2023-04-01T06:03:53;9.50;99.90
3996;DHT22;2012;49.794;9.722;2023-04-01T06:06:25;9.50;99.90
3996;DHT22;2012;49.794;9.722;2023-04-01T06:09:05;9.50;99.90
3996;DHT22;2012;49.794;9.722;2023-04-01T06:17:19;9.50;99.90
3996;DHT22;2012;49.794;9.722;2023-04-01T06:41:20;9.60;99.90
3996;DHT22;2012;49.794;9.722;2023-04-01T06:44:13;9.60;99.90
3996;DHT22;2012;49.794;9.722;2023-04-01T06:47:36;9.60;99.90
3996;DHT22;2012;49.794;9.722;2023-04-01T06:50:44;9.70;99.90
3996;DHT22;2012;49.794;9.722;2023-04-01T06:57:27;9.70;99.90
3996;DHT22;2012;49.794;9.722;2023-04-01T06:59:59;9.70;99.90
3996;DHT22;2012;49.794;9.722;2023-04-01T07:02:37;9.80;99.90
3996;DHT22;2012;49.794;9.722;2023-04-01T07:05:07;9.70;99.90
3996;DHT22;2012;49.794;9.722;2023-04-01T07:07:45;9.70;99.90
3996;DHT22;2012;49.794;9.722;2023-04-01T07:10:23;9.80;99.90
3996;DHT22;2012;49.794;9.722;2023-04-01T07:13:29;9.80;99.90
3996;DHT22;2012;49.794;9.722;2023-04-01T07:16:06;9.80;99.90
3996;DHT22;2012;49.794;9.722;2023-04-01T07:19:01;9.80;99.90
3996;DHT22;2012;49.794;9.722;2023-04-01T07:21:51;9.90;99.90
3996;DHT22;2012;49.794;9.722;2023-04-01T07:24:37;9.90;99.90
3996;DHT22;2012;49.794;9.722;2023-04-01T07:27:12;9.90;99.90
3996;DHT22;2012;49.794;9.722;2023-04-01T07:29:41;9.80;99.90
3996;DHT22;2012;49.794;9.722;2023-04-01T07:35:07;9.80;99.90
3996;DHT22;2012;49.794;9.722;2023-04-01T07:57:06;9.90;99.90
3996;DHT22;2012;49.794;9.722;2023-04-01T08:00:16;9.90;99.90
3996;DHT22;2012;49.794;9.722;2023-04-01T08:05:45;9.80;99.90
3996;DHT22;2012;49.794;9.722;2023-04-01T08:12:10;9.70;99.90
3996;DHT22;2012;49.794;9.722;2023-04-01T08:21:23;9.60;99.90
3996;DHT22;2012;49.794;9.722;2023-04-01T08:23:55;9.60;99.90
3996;DHT22;2012;49.794;9.722;2023-04-01T08:31:51;9.50;99.90
3996;DHT22;2012;49.794;9.722;2023-04-01T08:34:28;9.60;99.90
3996;DHT22;2012;49.794;9.722;2023-04-01T08:37:03;9.50;99.90
3996;DHT22;2012;49.794;9.722;2023-04-01T08:39:36;9.60;99.90
3996;DHT22;2012;49.794;9.722;2023-04-01T08:45:28;9.50;99.90
3996;DHT22;2012;49.794;9.722;2023-04-01T08:48:11;9.50;99.90
3996;DHT22;2012;49.794;9.722;2023-04-01T09:02:04;9.60;99.90
3996;DHT22;2012;49.794;9.722;2023-04-01T09:07:42;9.70;99.90
3996;DHT22;2012;49.794;9.722;2023-04-01T09:14:02;9.70;99.90
3996;DHT22;2012;49.794;9.722;2023-04-01T09:19:17;9.70;99.90
3996;DHT22;2012;49.794;9.722;2023-04-01T09:27:49;9.70;99.90
3996;DHT22;2012;49.794;9.722;2023-04-01T09:30:31;9.80;99.90
3996;DHT22;2012;49.794;9.722;2023-04-01T09:36:02;9.90;99.90
3996;DHT22;2012;49.794;9.722;2023-04-01T09:38:44;10.00;99.90
3996;DHT22;2012;49.794;9.722;2023-04-01T09:44:17;9.90;99.90
3996;DHT22;2012;49.794;9.722;2023-04-01T09:53:14;10.00;99.90
3996;DHT22;2012;49.794;9.722;2023-04-01T10:07:56;10.20;99.90
3996;DHT22;2012;49.794;9.722;2023-04-01T10:14:07;10.30;99.90
3996;DHT22;2012;49.794;9.722;2023-04-01T10:16:46;10.40;99.90
3996;DHT22;2012;49.794;9.722;2023-04-01T10:19:44;10.20;99.90
3996;DHT22;2012;49.794;9.722;2023-04-01T10:36:35;10.30;99.90
3996;DHT22;2012;49.794;9.722;2023-04-01T10:58:34;10.50;99.90
3996;DHT22;2012;49.794;9.722;2023-04-01T11:05:26;10.50;99.90
3996;DHT22;2012;49.794;9.722;2023-04-01T11:08:47;10.50;99.90
3996;DHT22;2012;49.794;9.722;2023-04-01T11:36:20;10.40;99.90
3996;DHT22;2012;49.794;9.722;2023-04-01T11:39:11;10.50;99.90
3996;DHT22;2012;49.794;9.722;2023-04-01T11:42:14;10.50;99.90
3996;DHT22;2012;49.794;9.722;2023-04-01T11:45:36;10.50;99.90
3996;DHT22;2012;49.794;9.722;2023-04-01T11:56:56;10.80;99.90
3996;DHT22;2012;49.794;9.722;2023-04-01T11:59:47;10.70;99.90
3996;DHT22;2012;49.794;9.722;2023-04-01T12:05:43;10.80;99.90
3996;DHT22;2012;49.794;9.722;2023-04-01T12:08:46;10.80;99.90
3996;DHT22;2012;49.794;9.722;2023-04-01T12:11:27;10.70;99.90
3996;DHT22;2012;49.794;9.722;2023-04-01T12:19:26;10.60;99.90
3996;DHT22;2012;49.794;9.722;2023-04-01T12:22:12;10.70;99.90
3996;DHT22;2012;49.794;9.722;2023-04-01T12:25:16;10.70;99.90
3996;DHT22;2012;49.794;9.722;2023-04-01T12:28:14;10.70;99.90
3996;DHT22;2012;49.794;9.722;2023-04-01T12:33:23;10.90;99.90
3996;DHT22;2012;49.794;9.722;2023-04-01T12:36:19;10.80;99.90
3996;DHT22;2012;49.794;9.722;2023-04-01T12:39:19;10.80;99.90
3996;DHT22;2012;49.794;9.722;2023-04-01T12:45:11;10.80;99.90
3996;DHT22;2012;49.794;9.722;2023-04-01T13:02:48;10.70;99.90
3996;DHT22;2012;49.794;9.722;2023-04-01T13:14:20;10.70;99.90
3996;DHT22;2012;49.794;9.722;2023-04-01T13:25:58;10.80;99.90
3996;DHT22;2012;49.794;9.722;2023-04-01T13:29:07;10.80;99.90
3996;DHT22;2012;49.794;9.722;2023-04-01T13:32:15;10.80;99.90
3996;DHT22;2012;49.794;9.722;2023-04-01T13:38:08;10.80;99.90
3996;DHT22;2012;49.794;9.722;2023-04-01T13:40:49;10.80;99.90
3996;DHT22;2012;49.794;9.722;2023-04-01T13:43:37;10.80;99.90
3996;DHT22;2012;49.794;9.722;2023-04-01T14:00:38;10.90;99.90
3996;DHT22;2012;49.794;9.722;2023-04-01T14:03:32;10.90;99.90
3996;DHT22;2012;49.794;9.722;2023-04-01T14:12:04;11.00;99.90
3996;DHT22;2012;49.794;9.722;2023-04-01T14:14:52;10.90;99.90
3996;DHT22;2012;49.794;9.722;2023-04-01T14:17:35;11.00;99.90
3996;DHT22;2012;49.794;9.722;2023-04-01T14:20:28;11.10;99.90
3996;DHT22;2012;49.794;9.722;2023-04-01T14:23:13;11.00;99.90
3996;DHT22;2012;49.794;9.722;2023-04-01T14:28:57;10.90;99.90
3996;DHT22;2012;49.794;9.722;2023-04-01T14:31:48;10.90;99.90
3996;DHT22;2012;49.794;9.722;2023-04-01T14:34:21;10.90;99.90
3996;DHT22;2012;49.794;9.722;2023-04-01T14:37:19;10.90;99.90
3996;DHT22;2012;49.794;9.722;2023-04-01T14:49:02;11.90;99.90
3996;DHT22;2012;49.794;9.722;2023-04-01T14:51:39;12.30;99.90
3996;DHT22;2012;49.794;9.722;2023-04-01T14:54:17;12.60;99.90
3996;DHT22;2012;49.794;9.722;2023-04-01T14:56:51;12.40;99.90
3996;DHT22;2012;49.794;9.722;2023-04-01T14:59:29;12.20;99.90
3996;DHT22;2012;49.794;9.722;2023-04-01T15:02:01;12.10;99.90
3996;DHT22;2012;49.794;9.722;2023-04-01T15:04:43;12.80;99.90
3996;DHT22;2012;49.794;9.722;2023-04-01T15:07:36;12.10;99.90
3996;DHT22;2012;49.794;9.722;2023-04-01T15:21:30;12.40;99.90
3996;DHT22;2012;49.794;9.722;2023-04-01T15:29:35;12.20;99.90
3996;DHT22;2012;49.794;9.722;2023-04-01T15:32:13;12.40;99.90
3996;DHT22;2012;49.794;9.722;2023-04-01T15:38:09;12.60;99.90
3996;DHT22;2012;49.794;9.722;2023-04-01T15:40:45;12.80;99.90
3996;DHT22;2012;49.794;9.722;2023-04-01T15:46:26;12.60;99.90
3996;DHT22;2012;49.794;9.722;2023-04-01T16:00:19;11.00;99.90
3996;DHT22;2012;49.794;9.722;2023-04-01T16:03:09;11.00;99.90
3996;DHT22;2012;49.794;9.722;2023-04-01T16:06:11;11.00;99.90
3996;DHT22;2012;49.794;9.722;2023-04-01T16:13:58;10.90;99.90
3996;DHT22;2012;49.794;9.722;2023-04-01T16:27:37;10.90;99.90
3996;DHT22;2012;49.794;9.722;2023-04-01T16:30:32;10.80;99.90
3996;DHT22;2012;49.794;9.722;2023-04-01T16:33:15;10.80;99.90
3996;DHT22;2012;49.794;9.722;2023-04-01T16:36:01;10.80;99.90
3996;DHT22;2012;49.794;9.722;2023-04-01T16:41:32;10.80;99.90
3996;DHT22;2012;49.794;9.722;2023-04-01T16:44:13;10.80;99.90
3996;DHT22;2012;49.794;9.722;2023-04-01T16:46:46;10.80;99.90
3996;DHT22;2012;49.794;9.722;2023-04-01T16:49:42;10.70;99.90
3996;DHT22;2012;49.794;9.722;2023-04-01T16:52:16;10.80;99.90
3996;DHT22;2012;49.794;9.722;2023-04-01T16:54:55;10.70;99.90
3996;DHT22;2012;49.794;9.722;2023-04-01T16:57:37;10.60;99.90
3996;DHT22;2012;49.794;9.722;2023-04-01T17:00:37;10.70;99.90
3996;DHT22;2012;49.794;9.722;2023-04-01T17:03:44;10.70;99.90
3996;DHT22;2012;49.794;9.722;2023-04-01T17:12:11;10.60;99.90
3996;DHT22;2012;49.794;9.722;2023-04-01T17:15:04;10.50;99.90
3996;DHT22;2012;49.794;9.722;2023-04-01T17:20:19;10.50;99.90
3996;DHT22;2012;49.794;9.722;2023-04-01T17:23:20;10.50;99.90
3996;DHT22;2012;49.794;9.722;2023-04-01T17:31:53;10.40;99.90
3996;DHT22;2012;49.794;9.722;2023-04-01T17:43:42;10.40;99.90
3996;DHT22;2012;49.794;9.722;2023-04-01T17:49:36;10.40;99.90
3996;DHT22;2012;49.794;9.722;2023-04-01T17:54:42;10.30;99.90
3996;DHT22;2012;49.794;9.722;2023-04-01T18:00:23;10.30;99.90
3996;DHT22;2012;49.794;9.722;2023-04-01T18:06:12;10.30;99.90
3996;DHT22;2012;49.794;9.722;2023-04-01T18:09:00;10.30;99.90
3996;DHT22;2012;49.794;9.722;2023-04-01T18:14:23;10.30;99.90
3996;DHT22;2012;49.794;9.722;2023-04-01T18:20:03;10.30;99.90
3996;DHT22;2012;49.794;9.722;2023-04-01T18:25:28;10.30;99.90
3996;DHT22;2012;49.794;9.722;2023-04-01T18:30:43;10.20;99.90
3996;DHT22;2012;49.794;9.722;2023-04-01T18:38:30;10.30;99.90
3996;DHT22;2012;49.794;9.722;2023-04-01T18:41:23;10.30;99.90
3996;DHT22;2012;49.794;9.722;2023-04-01T18:51:51;10.20;99.90
3996;DHT22;2012;49.794;9.722;2023-04-01T18:56:51;10.10;99.90
3996;DHT22;2012;49.794;9.722;2023-04-01T19:04:42;10.10;99.90
3996;DHT22;2012;49.794;9.722;2023-04-01T19:07:39;10.20;99.90
3996;DHT22;2012;49.794;9.722;2023-04-01T19:15:39;10.10;99.90
3996;DHT22;2012;49.794;9.722;2023-04-01T19:18:20;10.10;99.90
3996;DHT22;2012;49.794;9.722;2023-04-01T19:21:26;10.10;99.90
3996;DHT22;2012;49.794;9.722;2023-04-01T19:24:34;10.10;99.90
3996;DHT22;2012;49.794;9.722;2023-04-01T19:38:14;10.10;99.90
3996;DHT22;2012;49.794;9.722;2023-04-01T19:40:48;10.10;99.90
3996;DHT22;2012;49.794;9.722;2023-04-01T19:43:44;10.10;99.90
3996;DHT22;2012;49.794;9.722;2023-04-01T19:46:44;10.10;99.90
3996;DHT22;2012;49.794;9.722;2023-04-01T19:52:36;10.00;99.90
3996;DHT22;2012;49.794;9.722;2023-04-01T19:58:14;10.10;99.90
3996;DHT22;2012;49.794;9.722;2023-04-01T20:00:48;10.00;99.90
3996;DHT22;2012;49.794;9.722;2023-04-01T20:03:42;10.00;99.90
3996;DHT22;2012;49.794;9.722;2023-04-01T20:15:00;10.00;99.90
3996;DHT22;2012;49.794;9.722;2023-04-01T20:25:46;10.00;99.90
3996;DHT22;2012;49.794;9.722;2023-04-01T20:34:39;10.00;99.90
3996;DHT22;2012;49.794;9.722;2023-04-01T20:58:23;10.00;99.90
3996;DHT22;2012;49.794;9.722;2023-04-01T21:07:10;10.00;99.90
3996;DHT22;2012;49.794;9.722;2023-04-01T21:09:46;10.00;99.90
3996;DHT22;2012;49.794;9.722;2023-04-01T21:26:35;9.80;99.90
3996;DHT22;2012;49.794;9.722;2023-04-01T21:29:58;9.80;99.90
3996;DHT22;2012;49.794;9.722;2023-04-01T21:32:33;9.90;99.90
3996;DHT22;2012;49.794;9.722;2023-04-01T21:35:27;9.90;99.90
3996;DHT22;2012;49.794;9.722;2023-04-01T21:40:47;9.90;99.90
3996;DHT22;2012;49.794;9.722;2023-04-01T21:46:48;9.90;99.90
3996;DHT22;2012;49.794;9.722;2023-04-01T22:05:30;9.80;99.90
3996;DHT22;2012;49.794;9.722;2023-04-01T22:10:48;9.80;99.90
3996;DHT22;2012;49.794;9.722;2023-04-01T22:13:29;9.80;99.90
3996;DHT22;2012;49.794;9.722;2023-04-01T22:24:48;9.70;99.90
3996;DHT22;2012;49.794;9.722;2023-04-01T22:27:26;9.70;99.90
3996;DHT22;2012;49.794;9.722;2023-04-01T22:32:29;9.80;99.90
3996;DHT22;2012;49.794;9.722;2023-04-01T22:41:09;9.80;99.90
3996;DHT22;2012;49.794;9.722;2023-04-01T22:43:40;9.80;99.90
3996;DHT22;2012;49.794;9.722;2023-04-01T22:49:00;9.90;99.90
3996;DHT22;2012;49.794;9.722;2023-04-01T22:54:32;9.70;99.90
3996;DHT22;2012;49.794;9.722;2023-04-01T22:57:12;9.70;99.90
3996;DHT22;2012;49.794;9.722;2023-04-01T23:00:01;9.70;99.90
3996;DHT22;2012;49.794;9.722;2023-04-01T23:02:37;9.70;99.90
3996;DHT22;2012;49.794;9.722;2023-04-01T23:05:10;9.70;99.90
3996;DHT22;2012;49.794;9.722;2023-04-01T23:07:56;9.60;99.90
3996;DHT22;2012;49.794;9.722;2023-04-01T23:10:42;9.60;99.90
3996;DHT22;2012;49.794;9.722;2023-04-01T23:13:16;9.60;99.90
3996;DHT22;2012;49.794;9.722;2023-04-01T23:15:44;9.60;99.90
3996;DHT22;2012;49.794;9.722;2023-04-01T23:18:34;9.70;99.90
3996;DHT22;2012;49.794;9.722;2023-04-01T23:22:06;9.60;99.90
3996;DHT22;2012;49.794;9.722;2023-04-01T23:24:35;9.60;99.90
3996;DHT22;2012;49.794;9.722;2023-04-01T23:27:17;9.60;99.90
3996;DHT22;2012;49.794;9.722;2023-04-01T23:29:45;9.60;99.90
3996;DHT22;2012;49.794;9.722;2023-04-01T23:32:18;9.60;99.90
3996;DHT22;2012;49.794;9.722;2023-04-01T23:34:49;9.60;99.90
3996;DHT22;2012;49.794;9.722;2023-04-01T23:37:18;9.60;99.90
3996;DHT22;2012;49.794;9.722;2023-04-01T23:39:50;9.60;99.90
3996;DHT22;2012;49.794;9.722;2023-04-01T23:42:29;9.70;99.90
3996;DHT22;2012;49.794;9.722;2023-04-01T23:45:01;9.60;99.90
3996;DHT22;2012;49.794;9.722;2023-04-01T23:50:01;9.60;99.90
3996;DHT22;2012;49.794;9.722;2023-04-01T23:52:35;9.60;99.90
3996;DHT22;2012;49.794;9.722;2023-04-01T23:55:11;9.60;99.90
3996;DHT22;2012;49.794;9.722;2023-04-01T23:57:39;9.70;99.90
